createdAt,value
2019-06-08T00:00:08.142Z,0.80
2019-06-08T00:02:36.707Z,0.63
2019-06-08T00:05:06.790Z,0.77
2019-06-08T00:07:35.375Z,0.60
2019-06-08T00:10:06.094Z,0.60
2019-06-08T00:12:34.656Z,0.80
2019-06-08T00:15:04.220Z,0.73
2019-06-08T00:17:38.603Z,0.70
2019-06-08T00:20:04.257Z,0.90
2019-06-08T00:22:32.855Z,0.87
2019-06-08T00:25:01.541Z,0.80
2019-06-08T00:27:30.282Z,0.70
2019-06-08T00:29:58.862Z,0.60
2019-06-08T00:32:27.435Z,0.90
2019-06-08T00:34:56.127Z,0.83
2019-06-08T00:37:25.029Z,0.70
2019-06-08T00:39:53.778Z,0.73
2019-06-08T00:42:23.325Z,0.77
2019-06-08T00:44:54.189Z,0.80
2019-06-08T00:47:22.959Z,1.00
2019-06-08T00:49:51.628Z,0.60
2019-06-08T00:52:21.030Z,0.70
2019-06-08T00:54:49.858Z,1.23
2019-06-08T00:57:19.587Z,0.57
2019-06-08T00:59:48.288Z,0.63
2019-06-08T01:02:18.185Z,0.60
2019-06-08T01:04:46.997Z,0.67
2019-06-08T01:07:15.597Z,0.70
2019-06-08T01:09:44.163Z,0.80
2019-06-08T01:12:12.791Z,0.53
2019-06-08T01:14:41.493Z,0.70
2019-06-08T01:17:10.058Z,0.53
2019-06-08T01:19:39.493Z,0.60
2019-06-08T01:22:08.059Z,0.93
2019-06-08T01:24:36.734Z,0.60
2019-06-08T01:27:05.616Z,0.90
2019-06-08T01:29:34.255Z,0.80
2019-06-08T01:32:02.863Z,0.70
2019-06-08T01:34:31.427Z,0.80
2019-06-08T01:37:00.037Z,0.70
2019-06-08T01:39:29.511Z,0.70
2019-06-08T01:41:58.301Z,0.57
2019-06-08T01:44:28.073Z,0.90
2019-06-08T01:46:56.854Z,0.60
2019-06-08T01:49:26.202Z,0.93
2019-06-08T01:51:54.995Z,0.50
2019-06-08T01:54:24.665Z,0.73
2019-06-08T01:56:53.548Z,0.70
2019-06-08T01:59:23.265Z,0.73
2019-06-08T02:01:52.153Z,0.70
2019-06-08T02:04:20.705Z,0.80
2019-06-08T02:06:49.272Z,0.80
2019-06-08T02:09:17.977Z,0.80
2019-06-08T02:11:46.539Z,0.70
2019-06-08T02:14:15.147Z,0.60
2019-06-08T02:16:43.786Z,0.70
2019-06-08T02:19:12.432Z,1.00
2019-06-08T02:21:41.010Z,0.77
2019-06-08T02:24:09.674Z,1.00
2019-06-08T02:26:39.615Z,0.83
2019-06-08T02:29:08.936Z,0.90
2019-06-08T02:31:37.894Z,0.70
2019-06-08T02:34:06.754Z,0.70
2019-06-08T02:36:35.934Z,0.70
2019-06-08T02:39:07.707Z,1.00
2019-06-08T02:41:37.618Z,0.87
2019-06-08T02:44:06.533Z,0.83
2019-06-08T02:46:36.006Z,1.00
2019-06-08T02:49:05.767Z,0.67
2019-06-08T02:51:36.414Z,0.90
2019-06-08T02:54:06.090Z,0.90
2019-06-08T02:56:36.847Z,1.00
2019-06-08T02:59:06.074Z,0.90
2019-06-08T03:01:35.969Z,0.83
2019-06-08T03:04:05.511Z,1.00
2019-06-08T03:06:36.873Z,0.70
2019-06-08T03:09:07.465Z,0.70
2019-06-08T03:11:37.658Z,0.90
2019-06-08T03:14:07.638Z,0.70
2019-06-08T03:16:38.330Z,1.03
2019-06-08T03:19:20.630Z,0.90
2019-06-08T03:21:38.339Z,0.87
2019-06-08T03:24:06.881Z,0.70
2019-06-08T03:26:36.610Z,0.90
2019-06-08T03:29:05.775Z,0.70
2019-06-08T03:31:38.381Z,0.70
2019-06-08T03:34:04.848Z,0.50
2019-06-08T03:36:35.903Z,0.80
2019-06-08T03:39:05.486Z,0.73
2019-06-08T03:41:34.794Z,0.67
2019-06-08T03:44:04.860Z,0.53
2019-06-08T03:46:34.495Z,0.60
2019-06-08T03:49:03.211Z,0.90
2019-06-08T03:51:35.225Z,0.80
2019-06-08T03:54:02.096Z,0.90
2019-06-08T03:56:30.657Z,0.97
2019-06-08T03:58:59.283Z,0.70
2019-06-08T04:01:27.940Z,0.73
2019-06-08T04:03:59.946Z,0.80
2019-06-08T04:06:26.748Z,0.80
2019-06-08T04:08:55.300Z,0.77
2019-06-08T04:11:23.869Z,0.60
2019-06-08T04:13:52.495Z,0.80
2019-06-08T04:16:22.231Z,0.90
2019-06-08T04:18:50.881Z,0.73
2019-06-08T04:21:19.573Z,0.70
2019-06-08T04:23:53.873Z,0.87
2019-06-08T04:26:22.466Z,0.77
2019-06-08T04:28:51.116Z,0.80
2019-06-08T04:31:19.676Z,0.90
2019-06-08T04:33:48.270Z,0.80
2019-06-08T04:36:16.828Z,0.60
2019-06-08T04:38:46.210Z,0.80
2019-06-08T04:41:15.784Z,0.90
2019-06-08T04:43:45.011Z,0.90
2019-06-08T04:46:14.621Z,0.83
2019-06-08T04:48:45.166Z,0.87
2019-06-08T04:51:13.458Z,1.00
2019-06-08T04:53:43.253Z,0.80
2019-06-08T04:56:12.223Z,0.70
2019-06-08T04:58:42.157Z,1.03
2019-06-08T05:01:11.025Z,0.80
2019-06-08T05:03:41.228Z,0.97
2019-06-08T05:06:09.867Z,0.80
2019-06-08T05:08:39.055Z,0.63
2019-06-08T05:11:07.932Z,0.97
2019-06-08T05:13:36.594Z,0.83
2019-06-08T05:16:05.313Z,1.10
2019-06-08T05:18:33.869Z,1.00
2019-06-08T05:21:02.435Z,1.20
2019-06-08T05:23:31.027Z,0.87
2019-06-08T05:25:59.691Z,0.70
2019-06-08T05:28:28.432Z,1.07
2019-06-08T05:30:56.989Z,0.67
2019-06-08T05:33:25.611Z,1.00
2019-06-08T05:35:54.217Z,0.97
2019-06-08T05:38:22.783Z,0.73
2019-06-08T05:40:51.343Z,0.80
2019-06-08T05:43:19.946Z,0.80
2019-06-08T05:45:49.823Z,0.90
2019-06-08T05:48:18.717Z,1.00
2019-06-08T05:51:00.507Z,1.27
2019-06-08T05:53:17.595Z,1.10
2019-06-08T05:55:46.284Z,1.20
2019-06-08T05:58:14.842Z,0.80
2019-06-08T06:00:44.199Z,0.90
2019-06-08T06:03:12.874Z,1.07
2019-06-08T06:05:42.422Z,0.90
2019-06-08T06:08:18.889Z,1.20
2019-06-08T06:10:42.882Z,0.80
2019-06-08T06:13:11.596Z,0.93
2019-06-08T06:15:40.966Z,1.27
2019-06-08T06:18:09.606Z,0.97
2019-06-08T06:20:38.487Z,0.97
2019-06-08T06:23:07.163Z,0.90
2019-06-08T06:25:35.741Z,0.87
2019-06-08T06:28:06.420Z,1.00
2019-06-08T06:30:34.960Z,0.80
2019-06-08T06:33:03.590Z,0.80
2019-06-08T06:35:33.374Z,0.83
2019-06-08T06:38:01.941Z,0.70
2019-06-08T06:40:30.487Z,0.80
2019-06-08T06:42:59.123Z,0.87
2019-06-08T06:45:27.747Z,0.97
2019-06-08T06:47:56.432Z,0.70
2019-06-08T06:50:25.169Z,1.87
2019-06-08T06:52:53.882Z,0.80
2019-06-08T06:55:25.260Z,1.00
2019-06-08T06:57:53.573Z,1.10
2019-06-08T07:00:32.669Z,0.80
2019-06-08T07:03:01.621Z,0.70
2019-06-08T07:05:30.288Z,0.90
2019-06-08T07:07:58.993Z,0.80
2019-06-08T07:10:27.570Z,1.10
2019-06-08T07:12:56.217Z,0.93
2019-06-08T07:15:29.190Z,0.70
2019-06-08T07:17:58.712Z,0.90
2019-06-08T07:20:27.421Z,0.90
2019-06-08T07:22:56.223Z,0.90
2019-06-08T07:25:24.824Z,0.73
2019-06-08T07:27:54.950Z,0.83
2019-06-08T07:30:23.976Z,0.80
2019-06-08T07:32:53.013Z,1.00
2019-06-08T07:35:21.787Z,0.90
2019-06-08T07:37:51.845Z,0.73
2019-06-08T07:40:20.587Z,1.10
2019-06-08T07:42:49.709Z,0.93
2019-06-08T07:45:19.690Z,0.87
2019-06-08T07:47:48.320Z,0.80
2019-06-08T07:50:17.554Z,1.00
2019-06-08T07:52:46.165Z,1.07
2019-06-08T07:55:14.820Z,1.43
2019-06-08T07:57:43.444Z,1.00
2019-06-08T08:00:12.351Z,1.17
2019-06-08T08:02:40.931Z,0.90
2019-06-08T08:05:09.828Z,1.13
2019-06-08T08:07:38.384Z,0.80
2019-06-08T08:10:10.678Z,0.77
2019-06-08T08:12:39.322Z,0.90
2019-06-08T08:15:08.507Z,0.80
2019-06-08T08:17:37.107Z,0.70
2019-06-08T08:20:08.227Z,0.97
2019-06-08T08:22:38.170Z,1.20
2019-06-08T08:25:08.340Z,0.90
2019-06-08T08:27:37.617Z,1.10
2019-06-08T08:30:08.322Z,0.90
2019-06-08T08:32:38.041Z,0.70
2019-06-08T08:35:08.853Z,0.87
2019-06-08T08:37:38.170Z,1.20
2019-06-08T08:40:08.200Z,1.10
2019-06-08T08:42:38.628Z,1.10
2019-06-08T08:45:08.791Z,0.93
2019-06-08T08:47:38.664Z,0.90
2019-06-08T08:50:08.237Z,1.03
2019-06-08T08:52:40.545Z,0.93
2019-06-08T08:55:08.275Z,1.17
2019-06-08T08:57:38.538Z,1.27
2019-06-08T09:00:09.299Z,1.10
2019-06-08T09:02:37.877Z,1.10
2019-06-08T09:05:08.581Z,1.37
2019-06-08T09:07:38.480Z,0.80
2019-06-08T09:10:11.281Z,1.10
2019-06-08T09:12:39.133Z,1.33
2019-06-08T09:15:08.564Z,1.13
2019-06-08T09:17:38.804Z,1.13
2019-06-08T09:20:13.040Z,1.23
2019-06-08T09:22:52.973Z,1.40
2019-06-08T09:25:13.382Z,1.17
2019-06-08T09:27:40.789Z,1.40
2019-06-08T09:30:09.651Z,1.80
2019-06-08T09:32:38.411Z,1.30
2019-06-08T09:35:09.396Z,1.53
2019-06-08T09:37:37.669Z,1.47
2019-06-08T09:40:07.003Z,1.30
2019-06-08T09:42:35.725Z,1.50
2019-06-08T09:45:08.920Z,1.20
2019-06-08T09:47:38.111Z,1.37
2019-06-08T09:50:09.287Z,1.30
2019-06-08T09:52:40.940Z,1.30
2019-06-08T09:55:09.537Z,1.33
2019-06-08T09:57:42.181Z,1.10
2019-06-08T10:00:18.165Z,1.30
2019-06-08T10:02:47.753Z,1.20
2019-06-08T10:05:13.610Z,1.30
2019-06-08T10:07:42.170Z,1.40
2019-06-08T10:10:11.102Z,1.50
2019-06-08T10:12:41.146Z,1.60
2019-06-08T10:15:10.523Z,1.57
2019-06-08T10:17:39.247Z,1.40
2019-06-08T10:20:10.066Z,1.50
2019-06-08T10:22:38.645Z,1.40
2019-06-08T10:25:11.042Z,1.23
2019-06-08T10:27:38.705Z,1.30
2019-06-08T10:30:10.135Z,1.50
2019-06-08T10:32:39.036Z,1.57
2019-06-08T10:35:10.515Z,1.20
2019-06-08T10:37:38.550Z,1.40
2019-06-08T10:40:07.954Z,1.50
2019-06-08T10:42:39.882Z,1.70
2019-06-08T10:45:12.154Z,1.47
2019-06-08T10:47:38.346Z,1.80
2019-06-08T10:50:14.721Z,1.37
2019-06-08T10:52:39.551Z,1.50
2019-06-08T10:55:11.606Z,1.50
2019-06-08T10:57:38.913Z,1.73
2019-06-08T11:00:20.931Z,1.33
2019-06-08T11:02:48.860Z,1.77
2019-06-08T11:05:18.185Z,1.63
2019-06-08T11:07:48.016Z,1.43
2019-06-08T11:10:19.081Z,1.40
2019-06-08T11:12:48.506Z,1.50
2019-06-08T11:15:17.582Z,1.53
2019-06-08T11:17:46.146Z,1.73
2019-06-08T11:20:15.065Z,1.70
2019-06-08T11:22:43.639Z,1.40
2019-06-08T11:25:15.979Z,1.60
2019-06-08T11:27:42.660Z,1.30
2019-06-08T11:30:20.407Z,1.20
2019-06-08T11:32:41.783Z,1.20
2019-06-08T11:35:12.539Z,1.90
2019-06-08T11:37:41.082Z,1.53
2019-06-08T11:40:12.367Z,1.47
2019-06-08T11:42:40.778Z,1.30
2019-06-08T11:45:12.656Z,1.13
2019-06-08T11:47:41.084Z,1.67
2019-06-08T11:50:13.104Z,1.57
2019-06-08T11:52:40.800Z,1.70
2019-06-08T11:55:12.540Z,1.50
2019-06-08T11:57:40.614Z,1.50
2019-06-08T12:00:23.674Z,1.50
2019-06-08T12:02:43.612Z,1.50
2019-06-08T12:05:14.146Z,1.70
2019-06-08T12:07:42.884Z,1.97
2019-06-08T12:10:13.813Z,1.57
2019-06-08T12:12:42.622Z,1.57
2019-06-08T12:15:13.382Z,1.40
2019-06-08T12:17:41.916Z,1.57
2019-06-08T12:20:17.082Z,1.37
2019-06-08T12:22:40.922Z,1.37
2019-06-08T12:25:10.292Z,1.50
2019-06-08T12:27:40.137Z,1.40
2019-06-08T12:30:18.603Z,1.30
2019-06-08T12:32:39.485Z,1.50
2019-06-08T12:35:09.710Z,1.60
2019-06-08T12:37:38.797Z,1.17
2019-06-08T12:40:09.744Z,1.50
2019-06-08T12:42:38.259Z,1.43
2019-06-08T12:45:07.527Z,1.50
2019-06-08T12:47:38.173Z,1.50
2019-06-08T12:50:09.031Z,1.53
2019-06-08T12:52:39.295Z,1.50
2019-06-08T12:55:14.691Z,1.47
2019-06-08T12:57:38.536Z,1.30
2019-06-08T13:00:09.884Z,1.50
2019-06-08T13:02:38.571Z,1.40
2019-06-08T13:05:11.589Z,1.53
2019-06-08T13:07:38.524Z,1.63
2019-06-08T13:10:08.700Z,1.30
2019-06-08T13:12:40.530Z,1.10
2019-06-08T13:15:09.656Z,1.50
2019-06-08T13:17:38.589Z,1.63
2019-06-08T13:20:10.599Z,1.50
2019-06-08T13:22:39.216Z,1.60
2019-06-08T13:25:19.203Z,1.40
2019-06-08T13:27:38.178Z,1.50
2019-06-08T13:30:07.581Z,1.67
2019-06-08T13:32:38.255Z,1.30
2019-06-08T13:35:08.223Z,1.70
2019-06-08T13:37:39.029Z,1.60
2019-06-08T13:40:08.328Z,1.53
2019-06-08T13:42:38.297Z,1.37
2019-06-08T13:45:08.673Z,1.30
2019-06-08T13:47:40.956Z,1.50
2019-06-08T13:50:11.019Z,1.47
2019-06-08T13:52:39.246Z,1.43
2019-06-08T13:55:09.047Z,1.27
2019-06-08T13:57:37.987Z,1.50
2019-06-08T14:00:09.184Z,1.50
2019-06-08T14:02:39.883Z,1.57
2019-06-08T14:05:09.875Z,1.40
2019-06-08T14:07:38.518Z,1.30
2019-06-08T14:10:09.476Z,1.60
2019-06-08T14:12:38.534Z,1.30
2019-06-08T14:15:08.650Z,1.13
2019-06-08T14:17:37.882Z,1.23
2019-06-08T14:20:08.042Z,1.60
2019-06-08T14:22:38.891Z,1.40
2019-06-08T14:25:10.507Z,1.50
2019-06-08T14:27:37.584Z,1.50
2019-06-08T14:30:08.370Z,1.40
2019-06-08T14:32:38.163Z,1.10
2019-06-08T14:35:08.721Z,1.50
2019-06-08T14:37:38.080Z,1.30
2019-06-08T14:40:08.802Z,1.50
2019-06-08T14:42:38.435Z,1.50
2019-06-08T14:45:11.018Z,1.20
2019-06-08T14:47:39.908Z,1.40
2019-06-08T14:50:09.077Z,1.57
2019-06-08T14:52:38.281Z,1.37
2019-06-08T14:55:07.978Z,1.30
2019-06-08T14:57:37.942Z,1.40
2019-06-08T15:00:09.556Z,1.50
2019-06-08T15:02:38.461Z,1.50
2019-06-08T15:05:07.864Z,1.43
2019-06-08T15:07:38.650Z,1.47
2019-06-08T15:10:09.867Z,1.20
2019-06-08T15:12:38.404Z,1.30
2019-06-08T15:15:10.787Z,1.43
2019-06-08T15:17:38.066Z,1.80
2019-06-08T15:20:08.810Z,1.53
2019-06-08T15:22:38.922Z,1.40
2019-06-08T15:25:11.090Z,1.40
2019-06-08T15:27:39.029Z,1.63
2019-06-08T15:30:07.855Z,1.60
2019-06-08T15:32:38.635Z,1.67
2019-06-08T15:35:08.054Z,1.47
2019-06-08T15:37:38.010Z,1.40
2019-06-08T15:40:08.623Z,1.50
2019-06-08T15:42:37.598Z,1.30
2019-06-08T15:45:08.610Z,1.40
2019-06-08T15:47:40.471Z,1.27
2019-06-08T15:50:08.829Z,1.50
2019-06-08T15:52:38.116Z,1.63
2019-06-08T15:55:08.505Z,1.40
2019-06-08T15:57:40.799Z,1.50
2019-06-08T16:00:10.278Z,1.10
2019-06-08T16:02:39.171Z,1.53
2019-06-08T16:05:09.212Z,1.30
2019-06-08T16:07:37.780Z,1.47
2019-06-08T16:10:07.623Z,1.47
2019-06-08T16:12:36.198Z,1.30
2019-06-08T16:15:06.489Z,1.50
2019-06-08T16:17:35.521Z,1.30
2019-06-08T16:20:04.955Z,1.40
2019-06-08T16:22:33.848Z,1.43
2019-06-08T16:25:02.441Z,1.27
2019-06-08T16:27:32.169Z,1.20
2019-06-08T16:30:08.718Z,1.40
2019-06-08T16:32:31.515Z,1.50
2019-06-08T16:35:00.258Z,1.40
2019-06-08T16:37:29.563Z,1.47
2019-06-08T16:39:58.345Z,1.40
2019-06-08T16:42:27.869Z,1.30
2019-06-08T16:44:56.944Z,1.40
2019-06-08T16:47:26.913Z,1.40
2019-06-08T16:49:55.678Z,1.50
2019-06-08T16:52:24.244Z,1.57
2019-06-08T16:54:52.914Z,1.40
2019-06-08T16:57:21.602Z,1.53
2019-06-08T16:59:50.208Z,1.80
2019-06-08T17:02:18.834Z,1.23
2019-06-08T17:04:47.399Z,1.60
2019-06-08T17:07:16.689Z,1.63
2019-06-08T17:09:45.418Z,1.30
2019-06-08T17:12:14.051Z,1.30
2019-06-08T17:14:42.614Z,1.60
2019-06-08T17:17:11.261Z,1.27
2019-06-08T17:19:40.337Z,1.70
2019-06-08T17:22:09.099Z,1.70
2019-06-08T17:24:38.648Z,1.43
2019-06-08T17:27:07.533Z,1.63
2019-06-08T17:29:36.898Z,1.30
2019-06-08T17:32:05.545Z,2.00
2019-06-08T17:34:34.969Z,1.50
2019-06-08T17:37:04.048Z,1.53
2019-06-08T17:39:33.744Z,1.40
2019-06-08T17:42:02.675Z,1.30
2019-06-08T17:44:32.177Z,1.60
2019-06-08T17:47:01.103Z,1.70
2019-06-08T17:49:30.213Z,1.60
2019-06-08T17:51:58.863Z,1.50
2019-06-08T17:54:29.929Z,1.60
2019-06-08T17:56:59.310Z,1.83
2019-06-08T17:59:27.916Z,1.40
2019-06-08T18:01:56.469Z,1.57
2019-06-08T18:04:25.134Z,1.43
2019-06-08T18:06:59.443Z,1.50
2019-06-08T18:09:28.276Z,1.60
2019-06-08T18:11:59.262Z,1.70
2019-06-08T18:14:28.889Z,1.50
2019-06-08T18:16:57.528Z,1.40
2019-06-08T18:19:30.330Z,1.50
2019-06-08T18:22:05.376Z,1.40
2019-06-08T18:24:32.733Z,1.47
2019-06-08T18:27:01.369Z,1.40
2019-06-08T18:29:30.052Z,1.40
2019-06-08T18:31:59.238Z,1.80
2019-06-08T18:34:28.735Z,1.60
2019-06-08T18:36:58.027Z,1.20
2019-06-08T18:39:28.645Z,1.70
2019-06-08T18:41:58.964Z,1.50
2019-06-08T18:44:28.426Z,1.80
2019-06-08T18:46:57.775Z,1.73
2019-06-08T18:49:28.773Z,1.80
2019-06-08T18:51:58.277Z,1.90
2019-06-08T18:54:27.925Z,1.60
2019-06-08T18:56:56.970Z,1.90
2019-06-08T18:59:25.523Z,1.80
2019-06-08T19:01:54.145Z,2.30
2019-06-08T19:04:22.718Z,2.03
2019-06-08T19:06:52.257Z,2.20
2019-06-08T19:09:20.929Z,1.93
2019-06-08T19:11:50.162Z,1.90
2019-06-08T19:14:20.846Z,1.83
2019-06-08T19:16:54.367Z,2.37
2019-06-08T19:19:19.454Z,1.87
2019-06-08T19:21:50.213Z,1.80
2019-06-08T19:24:18.703Z,2.20
2019-06-08T19:26:48.667Z,2.10
2019-06-08T19:29:19.418Z,1.70
2019-06-08T19:31:51.256Z,2.00
2019-06-08T19:34:18.439Z,1.77
2019-06-08T19:36:52.154Z,2.40
2019-06-08T19:39:17.903Z,2.27
2019-06-08T19:41:49.307Z,2.13
2019-06-08T19:44:18.311Z,2.30
2019-06-08T19:46:52.005Z,2.30
2019-06-08T19:49:17.481Z,1.90
2019-06-08T19:51:48.552Z,1.90
2019-06-08T19:54:18.245Z,2.50
2019-06-08T19:56:52.497Z,2.10
2019-06-08T19:59:18.269Z,1.90
2019-06-08T20:01:51.372Z,2.07
2019-06-08T20:04:18.269Z,2.20
2019-06-08T20:06:48.067Z,1.67
2019-06-08T20:09:17.619Z,2.07
2019-06-08T20:11:49.440Z,2.20
2019-06-08T20:14:16.535Z,2.13
2019-06-08T20:16:45.188Z,1.87
2019-06-08T20:19:13.747Z,2.50
2019-06-08T20:21:42.914Z,2.13
2019-06-08T20:24:14.589Z,2.40
2019-06-08T20:26:44.169Z,2.30
2019-06-08T20:29:16.313Z,2.23
2019-06-08T20:31:43.388Z,2.33
2019-06-08T20:34:12.039Z,2.03
2019-06-08T20:36:40.606Z,2.30
2019-06-08T20:39:09.278Z,2.50
2019-06-08T20:41:38.013Z,2.60
2019-06-08T20:44:08.534Z,2.20
2019-06-08T20:46:37.943Z,2.30
2019-06-08T20:49:08.335Z,2.30
2019-06-08T20:51:37.426Z,2.50
2019-06-08T20:54:07.846Z,2.10
2019-06-08T20:56:37.187Z,2.10
2019-06-08T20:59:08.007Z,2.63
2019-06-08T21:01:36.164Z,3.23
2019-06-08T21:04:04.869Z,3.07
2019-06-08T21:06:33.492Z,3.53
2019-06-08T21:09:02.070Z,3.50
2019-06-08T21:11:30.632Z,2.93
2019-06-08T21:13:59.258Z,2.97
2019-06-08T21:16:27.917Z,2.77
2019-06-08T21:18:57.984Z,2.83
2019-06-08T21:21:28.310Z,3.00
2019-06-08T21:24:01.144Z,3.33
2019-06-08T21:26:27.890Z,3.50
2019-06-08T21:29:00.104Z,3.43
2019-06-08T21:31:28.564Z,3.73
2019-06-08T21:34:00.690Z,3.97
2019-06-08T21:36:27.254Z,3.53
2019-06-08T21:39:01.941Z,3.60
2019-06-08T21:41:27.957Z,4.03
2019-06-08T21:44:00.674Z,3.50
2019-06-08T21:46:27.506Z,3.50
2019-06-08T21:48:59.143Z,3.63
2019-06-08T21:51:26.535Z,3.63
2019-06-08T21:53:56.829Z,3.03
2019-06-08T21:56:27.515Z,3.67
2019-06-08T21:58:58.990Z,3.63
2019-06-08T22:01:28.675Z,4.00
2019-06-08T22:03:58.980Z,3.60
2019-06-08T22:06:27.603Z,3.80
2019-06-08T22:08:58.884Z,3.83
2019-06-08T22:11:26.611Z,3.60
2019-06-08T22:13:56.613Z,3.50
2019-06-08T22:16:27.413Z,3.50
2019-06-08T22:18:58.237Z,3.70
2019-06-08T22:21:28.002Z,3.60
2019-06-08T22:23:58.183Z,3.50
2019-06-08T22:26:28.026Z,3.80
2019-06-08T22:28:58.376Z,3.60
2019-06-08T22:31:27.748Z,3.67
2019-06-08T22:33:59.084Z,3.40
2019-06-08T22:36:27.591Z,3.47
2019-06-08T22:38:58.892Z,3.70
2019-06-08T22:41:28.043Z,3.90
2019-06-08T22:43:59.224Z,3.63
2019-06-08T22:46:27.382Z,3.80
2019-06-08T22:49:00.317Z,3.67
2019-06-08T22:51:27.676Z,4.00
2019-06-08T22:53:59.238Z,4.33
2019-06-08T22:56:27.577Z,4.00
2019-06-08T22:59:00.554Z,3.70
2019-06-08T23:01:27.846Z,4.07
2019-06-08T23:03:59.363Z,4.20
2019-06-08T23:06:28.116Z,3.50
2019-06-08T23:08:59.901Z,3.47
2019-06-08T23:11:28.438Z,3.87
2019-06-08T23:13:59.573Z,3.40
2019-06-08T23:16:27.542Z,3.80
2019-06-08T23:18:57.668Z,3.30
2019-06-08T23:21:27.502Z,3.47
2019-06-08T23:23:58.333Z,3.33
2019-06-08T23:26:27.598Z,3.93
2019-06-08T23:28:56.205Z,3.60
2019-06-08T23:31:25.659Z,3.53
2019-06-08T23:33:56.526Z,4.00
2019-06-08T23:36:51.790Z,3.27
2019-06-08T23:38:56.933Z,3.50
2019-06-08T23:41:27.292Z,3.23
2019-06-08T23:43:57.372Z,3.23
2019-06-08T23:46:27.371Z,3.60
2019-06-08T23:48:58.948Z,4.17
2019-06-08T23:51:27.587Z,4.03
2019-06-08T23:53:58.307Z,3.60
2019-06-08T23:56:27.719Z,3.80
2019-06-08T23:58:56.422Z,3.80
